Terminal Aerodrome Forecast
Issued by NWS

Home | Current Version | Previous Version | Text Only | Print | Product List | Glossary On
Versions: 1 2 3 4 5 6 7 8 9 10 11 12 13
000
FTUS43 KPAH 290245 AAA
TAFCGI
TAF AMD
KCGI 290245Z 2903/2924 21007KT P6SM VCSH SCT060 BKN100
      TEMPO 2903/2905 4SM -SHRA BR BKN035
     FM290500 24007KT P6SM BKN150
     FM291500 30008KT P6SM SCT050=

USA.gov is the U.S. government's official web portal to all federal, state and local government web resources and services.